sensor_id;sensor_type;location;lat;lon;timestamp;temperature;humidity
12289;DHT22;6207;49.308;7.336;2022-11-20T00:01:21;5.70;99.90
12289;DHT22;6207;49.308;7.336;2022-11-20T00:03:49;5.80;99.90
12289;DHT22;6207;49.308;7.336;2022-11-20T00:06:17;5.80;99.90
12289;DHT22;6207;49.308;7.336;2022-11-20T00:08:45;6.00;99.90
12289;DHT22;6207;49.308;7.336;2022-11-20T00:11:23;6.10;99.90
12289;DHT22;6207;49.308;7.336;2022-11-20T00:13:51;6.60;99.90
12289;DHT22;6207;49.308;7.336;2022-11-20T00:16:21;6.40;99.90
12289;DHT22;6207;49.308;7.336;2022-11-20T00:18:48;6.60;99.90
12289;DHT22;6207;49.308;7.336;2022-11-20T00:21:20;6.50;99.90
12289;DHT22;6207;49.308;7.336;2022-11-20T00:23:48;7.10;99.90
12289;DHT22;6207;49.308;7.336;2022-11-20T00:26:17;6.40;99.90
12289;DHT22;6207;49.308;7.336;2022-11-20T00:28:52;7.00;99.90
12289;DHT22;6207;49.308;7.336;2022-11-20T00:31:19;6.30;99.90
12289;DHT22;6207;49.308;7.336;2022-11-20T00:33:46;7.20;99.90
12289;DHT22;6207;49.308;7.336;2022-11-20T00:36:19;6.50;99.90
12289;DHT22;6207;49.308;7.336;2022-11-20T00:38:47;6.80;99.90
12289;DHT22;6207;49.308;7.336;2022-11-20T00:41:17;6.70;99.90
12289;DHT22;6207;49.308;7.336;2022-11-20T00:43:44;7.10;99.90
12289;DHT22;6207;49.308;7.336;2022-11-20T00:46:14;6.20;99.90
12289;DHT22;6207;49.308;7.336;2022-11-20T00:48:41;6.30;99.90
12289;DHT22;6207;49.308;7.336;2022-11-20T00:51:09;7.00;99.90
12289;DHT22;6207;49.308;7.336;2022-11-20T00:53:37;6.20;99.90
12289;DHT22;6207;49.308;7.336;2022-11-20T00:56:06;6.60;99.90
12289;DHT22;6207;49.308;7.336;2022-11-20T00:58:36;6.20;99.90
12289;DHT22;6207;49.308;7.336;2022-11-20T01:01:12;6.80;99.90
12289;DHT22;6207;49.308;7.336;2022-11-20T01:03:41;6.20;99.90
12289;DHT22;6207;49.308;7.336;2022-11-20T01:06:16;6.70;99.90
12289;DHT22;6207;49.308;7.336;2022-11-20T01:08:44;6.20;99.90
12289;DHT22;6207;49.308;7.336;2022-11-20T01:11:14;7.10;99.90
12289;DHT22;6207;49.308;7.336;2022-11-20T01:13:42;7.10;99.90
12289;DHT22;6207;49.308;7.336;2022-11-20T01:18:45;6.30;99.90
12289;DHT22;6207;49.308;7.336;2022-11-20T01:21:21;6.30;99.90
12289;DHT22;6207;49.308;7.336;2022-11-20T01:23:49;7.00;99.90
12289;DHT22;6207;49.308;7.336;2022-11-20T01:26:22;6.60;99.90
12289;DHT22;6207;49.308;7.336;2022-11-20T01:28:50;7.00;99.90
12289;DHT22;6207;49.308;7.336;2022-11-20T01:31:26;6.20;99.90
12289;DHT22;6207;49.308;7.336;2022-11-20T01:33:56;6.30;99.90
12289;DHT22;6207;49.308;7.336;2022-11-20T01:36:25;6.30;99.90
12289;DHT22;6207;49.308;7.336;2022-11-20T01:38:54;7.00;99.90
12289;DHT22;6207;49.308;7.336;2022-11-20T01:41:22;6.30;99.90
12289;DHT22;6207;49.308;7.336;2022-11-20T01:44:11;7.10;99.90
12289;DHT22;6207;49.308;7.336;2022-11-20T01:46:42;6.30;99.90
12289;DHT22;6207;49.308;7.336;2022-11-20T01:51:57;6.30;99.90
12289;DHT22;6207;49.308;7.336;2022-11-20T01:54:35;6.30;99.90
12289;DHT22;6207;49.308;7.336;2022-11-20T01:57:06;6.40;99.90
12289;DHT22;6207;49.308;7.336;2022-11-20T01:59:37;6.30;99.90
12289;DHT22;6207;49.308;7.336;2022-11-20T02:02:05;6.40;99.90
12289;DHT22;6207;49.308;7.336;2022-11-20T02:04:32;6.40;99.90
12289;DHT22;6207;49.308;7.336;2022-11-20T02:07:03;6.40;99.90
12289;DHT22;6207;49.308;7.336;2022-11-20T02:09:31;6.40;99.90
12289;DHT22;6207;49.308;7.336;2022-11-20T02:11:58;6.40;99.90
12289;DHT22;6207;49.308;7.336;2022-11-20T02:14:26;6.40;99.90
12289;DHT22;6207;49.308;7.336;2022-11-20T02:16:54;7.30;99.90
12289;DHT22;6207;49.308;7.336;2022-11-20T02:19:27;6.60;99.90
12289;DHT22;6207;49.308;7.336;2022-11-20T02:22:11;6.40;99.90
12289;DHT22;6207;49.308;7.336;2022-11-20T02:24:40;6.40;99.90
12289;DHT22;6207;49.308;7.336;2022-11-20T02:27:10;7.40;99.90
12289;DHT22;6207;49.308;7.336;2022-11-20T02:29:52;6.40;99.90
12289;DHT22;6207;49.308;7.336;2022-11-20T02:32:26;6.40;99.90
12289;DHT22;6207;49.308;7.336;2022-11-20T02:34:53;6.40;99.90
12289;DHT22;6207;49.308;7.336;2022-11-20T02:37:21;6.50;99.90
12289;DHT22;6207;49.308;7.336;2022-11-20T02:39:49;6.50;99.90
12289;DHT22;6207;49.308;7.336;2022-11-20T02:42:18;6.40;99.90
12289;DHT22;6207;49.308;7.336;2022-11-20T02:44:45;6.40;99.90
12289;DHT22;6207;49.308;7.336;2022-11-20T02:47:12;7.00;99.90
12289;DHT22;6207;49.308;7.336;2022-11-20T02:49:38;6.50;99.90
12289;DHT22;6207;49.308;7.336;2022-11-20T02:52:05;6.50;99.90
12289;DHT22;6207;49.308;7.336;2022-11-20T02:54:32;7.50;99.90
12289;DHT22;6207;49.308;7.336;2022-11-20T02:56:58;6.90;99.90
12289;DHT22;6207;49.308;7.336;2022-11-20T02:59:25;6.00;99.90
12289;DHT22;6207;49.308;7.336;2022-11-20T03:01:52;7.10;99.90
12289;DHT22;6207;49.308;7.336;2022-11-20T03:04:19;7.00;99.90
12289;DHT22;6207;49.308;7.336;2022-11-20T03:06:46;7.10;99.90
12289;DHT22;6207;49.308;7.336;2022-11-20T03:09:13;6.60;99.90
12289;DHT22;6207;49.308;7.336;2022-11-20T03:11:39;7.20;99.90
12289;DHT22;6207;49.308;7.336;2022-11-20T03:14:06;7.30;99.90
12289;DHT22;6207;49.308;7.336;2022-11-20T03:16:33;7.70;99.90
12289;DHT22;6207;49.308;7.336;2022-11-20T03:19:00;6.50;99.90
12289;DHT22;6207;49.308;7.336;2022-11-20T03:21:27;7.00;99.90
12289;DHT22;6207;49.308;7.336;2022-11-20T03:23:54;7.40;99.90
12289;DHT22;6207;49.308;7.336;2022-11-20T03:26:23;6.60;99.90
12289;DHT22;6207;49.308;7.336;2022-11-20T03:28:52;7.00;99.90
12289;DHT22;6207;49.308;7.336;2022-11-20T03:31:24;6.70;99.90
12289;DHT22;6207;49.308;7.336;2022-11-20T03:33:51;6.70;99.90
12289;DHT22;6207;49.308;7.336;2022-11-20T03:36:19;7.20;99.90
12289;DHT22;6207;49.308;7.336;2022-11-20T03:38:47;7.30;99.90
12289;DHT22;6207;49.308;7.336;2022-11-20T03:41:20;6.50;99.90
12289;DHT22;6207;49.308;7.336;2022-11-20T03:43:48;6.70;99.90
12289;DHT22;6207;49.308;7.336;2022-11-20T03:46:16;6.60;99.90
12289;DHT22;6207;49.308;7.336;2022-11-20T03:48:43;6.70;99.90
12289;DHT22;6207;49.308;7.336;2022-11-20T03:51:22;7.00;99.90
12289;DHT22;6207;49.308;7.336;2022-11-20T03:53:50;6.70;99.90
12289;DHT22;6207;49.308;7.336;2022-11-20T03:56:23;6.70;99.90
12289;DHT22;6207;49.308;7.336;2022-11-20T03:58:51;6.70;99.90
12289;DHT22;6207;49.308;7.336;2022-11-20T04:01:23;7.10;99.90
12289;DHT22;6207;49.308;7.336;2022-11-20T04:03:52;7.00;99.90
12289;DHT22;6207;49.308;7.336;2022-11-20T04:06:24;6.70;99.90
12289;DHT22;6207;49.308;7.336;2022-11-20T04:08:54;6.10;99.90
12289;DHT22;6207;49.308;7.336;2022-11-20T04:11:24;6.70;99.90
12289;DHT22;6207;49.308;7.336;2022-11-20T04:13:53;6.80;99.90
12289;DHT22;6207;49.308;7.336;2022-11-20T04:16:21;7.60;99.90
12289;DHT22;6207;49.308;7.336;2022-11-20T04:18:55;7.40;99.90
12289;DHT22;6207;49.308;7.336;2022-11-20T04:21:23;6.60;99.90
12289;DHT22;6207;49.308;7.336;2022-11-20T04:23:51;6.40;99.90
12289;DHT22;6207;49.308;7.336;2022-11-20T04:26:20;6.40;99.90
12289;DHT22;6207;49.308;7.336;2022-11-20T04:28:47;6.40;99.90
12289;DHT22;6207;49.308;7.336;2022-11-20T04:31:16;6.30;99.90
12289;DHT22;6207;49.308;7.336;2022-11-20T04:33:43;7.30;99.90
12289;DHT22;6207;49.308;7.336;2022-11-20T04:36:12;6.70;99.90
12289;DHT22;6207;49.308;7.336;2022-11-20T04:38:39;6.70;99.90
12289;DHT22;6207;49.308;7.336;2022-11-20T04:41:18;7.10;99.90
12289;DHT22;6207;49.308;7.336;2022-11-20T04:43:50;6.80;99.90
12289;DHT22;6207;49.308;7.336;2022-11-20T04:46:18;6.30;99.90
12289;DHT22;6207;49.308;7.336;2022-11-20T04:48:45;7.10;99.90
12289;DHT22;6207;49.308;7.336;2022-11-20T04:51:21;6.70;99.90
12289;DHT22;6207;49.308;7.336;2022-11-20T04:53:48;7.10;99.90
12289;DHT22;6207;49.308;7.336;2022-11-20T04:56:15;6.50;99.90
12289;DHT22;6207;49.308;7.336;2022-11-20T04:58:42;7.00;99.90
12289;DHT22;6207;49.308;7.336;2022-11-20T05:01:12;6.90;99.90
12289;DHT22;6207;49.308;7.336;2022-11-20T05:03:40;6.40;99.90
12289;DHT22;6207;49.308;7.336;2022-11-20T05:06:09;7.10;99.90
12289;DHT22;6207;49.308;7.336;2022-11-20T05:08:36;6.20;99.90
12289;DHT22;6207;49.308;7.336;2022-11-20T05:11:05;6.90;99.90
12289;DHT22;6207;49.308;7.336;2022-11-20T05:13:33;6.20;99.90
12289;DHT22;6207;49.308;7.336;2022-11-20T05:16:12;6.50;99.90
12289;DHT22;6207;49.308;7.336;2022-11-20T05:18:40;6.20;99.90
12289;DHT22;6207;49.308;7.336;2022-11-20T05:21:08;6.30;99.90
12289;DHT22;6207;49.308;7.336;2022-11-20T05:23:36;6.70;99.90
12289;DHT22;6207;49.308;7.336;2022-11-20T05:26:04;6.20;99.90
12289;DHT22;6207;49.308;7.336;2022-11-20T05:28:32;6.20;99.90
12289;DHT22;6207;49.308;7.336;2022-11-20T05:31:09;6.80;99.90
12289;DHT22;6207;49.308;7.336;2022-11-20T05:33:39;6.20;99.90
12289;DHT22;6207;49.308;7.336;2022-11-20T05:36:07;7.00;99.90
12289;DHT22;6207;49.308;7.336;2022-11-20T05:38:34;6.30;99.90
12289;DHT22;6207;49.308;7.336;2022-11-20T05:41:15;6.90;99.90
12289;DHT22;6207;49.308;7.336;2022-11-20T05:43:44;6.70;99.90
12289;DHT22;6207;49.308;7.336;2022-11-20T05:46:14;6.50;99.90
12289;DHT22;6207;49.308;7.336;2022-11-20T05:48:43;6.30;99.90
12289;DHT22;6207;49.308;7.336;2022-11-20T05:51:12;6.50;99.90
12289;DHT22;6207;49.308;7.336;2022-11-20T05:53:39;6.50;99.90
12289;DHT22;6207;49.308;7.336;2022-11-20T05:56:16;6.30;99.90
12289;DHT22;6207;49.308;7.336;2022-11-20T05:58:44;7.00;99.90
12289;DHT22;6207;49.308;7.336;2022-11-20T06:01:17;7.00;99.90
12289;DHT22;6207;49.308;7.336;2022-11-20T06:03:45;7.00;99.90
12289;DHT22;6207;49.308;7.336;2022-11-20T06:06:15;6.30;99.90
12289;DHT22;6207;49.308;7.336;2022-11-20T06:08:42;7.10;99.90
12289;DHT22;6207;49.308;7.336;2022-11-20T06:11:11;7.10;99.90
12289;DHT22;6207;49.308;7.336;2022-11-20T06:13:39;7.10;99.90
12289;DHT22;6207;49.308;7.336;2022-11-20T06:16:09;6.80;99.90
12289;DHT22;6207;49.308;7.336;2022-11-20T06:18:36;6.30;99.90
12289;DHT22;6207;49.308;7.336;2022-11-20T06:21:07;6.30;99.90
12289;DHT22;6207;49.308;7.336;2022-11-20T06:23:38;6.10;99.90
12289;DHT22;6207;49.308;7.336;2022-11-20T06:26:37;6.20;99.90
12289;DHT22;6207;49.308;7.336;2022-11-20T06:29:15;6.30;99.90
12289;DHT22;6207;49.308;7.336;2022-11-20T06:31:59;6.30;99.90
12289;DHT22;6207;49.308;7.336;2022-11-20T06:34:26;5.90;99.90
12289;DHT22;6207;49.308;7.336;2022-11-20T06:36:52;6.70;99.90
12289;DHT22;6207;49.308;7.336;2022-11-20T06:39:19;7.00;99.90
12289;DHT22;6207;49.308;7.336;2022-11-20T06:41:46;6.40;99.90
12289;DHT22;6207;49.308;7.336;2022-11-20T06:44:13;6.70;99.90
12289;DHT22;6207;49.308;7.336;2022-11-20T06:46:40;6.80;99.90
12289;DHT22;6207;49.308;7.336;2022-11-20T06:49:06;6.30;99.90
12289;DHT22;6207;49.308;7.336;2022-11-20T06:51:33;7.10;99.90
12289;DHT22;6207;49.308;7.336;2022-11-20T06:54:00;7.00;99.90
12289;DHT22;6207;49.308;7.336;2022-11-20T06:56:27;7.30;99.90
12289;DHT22;6207;49.308;7.336;2022-11-20T06:58:54;6.30;99.90
12289;DHT22;6207;49.308;7.336;2022-11-20T07:01:21;6.40;99.90
12289;DHT22;6207;49.308;7.336;2022-11-20T07:03:49;6.50;99.90
12289;DHT22;6207;49.308;7.336;2022-11-20T07:06:20;7.00;99.90
12289;DHT22;6207;49.308;7.336;2022-11-20T07:08:46;6.40;99.90
12289;DHT22;6207;49.308;7.336;2022-11-20T07:11:13;6.30;99.90
12289;DHT22;6207;49.308;7.336;2022-11-20T07:13:40;7.00;99.90
12289;DHT22;6207;49.308;7.336;2022-11-20T07:16:08;7.20;99.90
12289;DHT22;6207;49.308;7.336;2022-11-20T07:18:35;7.20;99.90
12289;DHT22;6207;49.308;7.336;2022-11-20T07:21:03;7.20;99.90
12289;DHT22;6207;49.308;7.336;2022-11-20T07:23:30;6.40;99.90
12289;DHT22;6207;49.308;7.336;2022-11-20T07:25:58;6.30;99.90
12289;DHT22;6207;49.308;7.336;2022-11-20T07:28:24;7.00;99.90
12289;DHT22;6207;49.308;7.336;2022-11-20T07:30:52;6.70;99.90
12289;DHT22;6207;49.308;7.336;2022-11-20T07:33:19;6.30;99.90
12289;DHT22;6207;49.308;7.336;2022-11-20T07:35:46;6.30;99.90
12289;DHT22;6207;49.308;7.336;2022-11-20T07:38:13;6.30;99.90
12289;DHT22;6207;49.308;7.336;2022-11-20T07:40:40;6.50;99.90
12289;DHT22;6207;49.308;7.336;2022-11-20T07:43:07;7.30;99.90
12289;DHT22;6207;49.308;7.336;2022-11-20T07:45:34;6.70;99.90
12289;DHT22;6207;49.308;7.336;2022-11-20T07:48:00;7.20;99.90
12289;DHT22;6207;49.308;7.336;2022-11-20T07:50:27;7.50;99.90
12289;DHT22;6207;49.308;7.336;2022-11-20T07:53:01;6.60;99.90
12289;DHT22;6207;49.308;7.336;2022-11-20T07:55:28;6.50;99.90
12289;DHT22;6207;49.308;7.336;2022-11-20T07:57:55;6.50;99.90
12289;DHT22;6207;49.308;7.336;2022-11-20T08:00:23;6.50;99.90
12289;DHT22;6207;49.308;7.336;2022-11-20T08:02:50;6.50;99.90
12289;DHT22;6207;49.308;7.336;2022-11-20T08:05:17;6.60;99.90
12289;DHT22;6207;49.308;7.336;2022-11-20T08:07:44;6.60;99.90
12289;DHT22;6207;49.308;7.336;2022-11-20T08:10:13;6.60;99.90
12289;DHT22;6207;49.308;7.336;2022-11-20T08:12:46;6.60;99.90
12289;DHT22;6207;49.308;7.336;2022-11-20T08:15:33;6.60;99.90
12289;DHT22;6207;49.308;7.336;2022-11-20T08:18:01;6.80;99.90
12289;DHT22;6207;49.308;7.336;2022-11-20T08:20:48;6.60;99.90
12289;DHT22;6207;49.308;7.336;2022-11-20T08:23:15;6.60;99.90
12289;DHT22;6207;49.308;7.336;2022-11-20T08:25:42;6.60;99.90
12289;DHT22;6207;49.308;7.336;2022-11-20T08:28:09;6.60;99.90
12289;DHT22;6207;49.308;7.336;2022-11-20T08:30:46;6.60;99.90
12289;DHT22;6207;49.308;7.336;2022-11-20T08:33:13;6.60;99.90
12289;DHT22;6207;49.308;7.336;2022-11-20T08:35:40;6.70;99.90
12289;DHT22;6207;49.308;7.336;2022-11-20T08:38:08;6.70;99.90
12289;DHT22;6207;49.308;7.336;2022-11-20T08:40:35;6.70;99.90
12289;DHT22;6207;49.308;7.336;2022-11-20T08:43:02;6.70;99.90
12289;DHT22;6207;49.308;7.336;2022-11-20T08:45:29;6.70;99.90
12289;DHT22;6207;49.308;7.336;2022-11-20T08:48:01;6.70;99.90
12289;DHT22;6207;49.308;7.336;2022-11-20T08:50:28;6.70;99.90
12289;DHT22;6207;49.308;7.336;2022-11-20T08:52:55;6.70;99.90
12289;DHT22;6207;49.308;7.336;2022-11-20T08:55:27;6.70;99.90
12289;DHT22;6207;49.308;7.336;2022-11-20T08:57:54;6.70;99.90
12289;DHT22;6207;49.308;7.336;2022-11-20T09:00:21;6.80;99.90
12289;DHT22;6207;49.308;7.336;2022-11-20T09:02:48;6.70;99.90
12289;DHT22;6207;49.308;7.336;2022-11-20T09:05:15;6.70;99.90
12289;DHT22;6207;49.308;7.336;2022-11-20T09:07:41;6.90;99.90
12289;DHT22;6207;49.308;7.336;2022-11-20T09:10:08;6.80;99.90
12289;DHT22;6207;49.308;7.336;2022-11-20T09:12:50;6.80;99.90
12289;DHT22;6207;49.308;7.336;2022-11-20T09:15:18;6.80;99.90
12289;DHT22;6207;49.308;7.336;2022-11-20T09:17:55;6.80;99.90
12289;DHT22;6207;49.308;7.336;2022-11-20T09:20:22;6.90;99.90
12289;DHT22;6207;49.308;7.336;2022-11-20T09:22:49;6.90;99.90
12289;DHT22;6207;49.308;7.336;2022-11-20T09:25:16;7.00;99.90
12289;DHT22;6207;49.308;7.336;2022-11-20T09:27:42;7.00;99.90
12289;DHT22;6207;49.308;7.336;2022-11-20T09:30:11;7.10;99.90
12289;DHT22;6207;49.308;7.336;2022-11-20T09:32:41;7.20;99.90
12289;DHT22;6207;49.308;7.336;2022-11-20T09:35:08;7.30;99.90
12289;DHT22;6207;49.308;7.336;2022-11-20T09:37:35;7.40;99.90
12289;DHT22;6207;49.308;7.336;2022-11-20T09:40:02;7.40;99.90
12289;DHT22;6207;49.308;7.336;2022-11-20T09:42:42;7.30;99.90
12289;DHT22;6207;49.308;7.336;2022-11-20T09:50:32;7.30;99.90
12289;DHT22;6207;49.308;7.336;2022-11-20T09:55:39;7.30;99.90
12289;DHT22;6207;49.308;7.336;2022-11-20T09:58:07;7.30;99.90
12289;DHT22;6207;49.308;7.336;2022-11-20T10:00:39;7.30;99.90
12289;DHT22;6207;49.308;7.336;2022-11-20T10:03:17;7.40;99.90
12289;DHT22;6207;49.308;7.336;2022-11-20T10:05:53;7.50;99.90
12289;DHT22;6207;49.308;7.336;2022-11-20T10:08:38;7.80;99.90
12289;DHT22;6207;49.308;7.336;2022-11-20T10:14:09;8.60;99.90
12289;DHT22;6207;49.308;7.336;2022-11-20T10:17:15;8.30;99.90
12289;DHT22;6207;49.308;7.336;2022-11-20T10:31:55;8.70;99.90
12289;DHT22;6207;49.308;7.336;2022-11-20T10:34:28;8.90;99.90
12289;DHT22;6207;49.308;7.336;2022-11-20T10:36:59;8.90;99.90
12289;DHT22;6207;49.308;7.336;2022-11-20T10:47:45;9.20;99.90
12289;DHT22;6207;49.308;7.336;2022-11-20T10:50:16;9.20;99.90
12289;DHT22;6207;49.308;7.336;2022-11-20T10:53:00;9.20;99.90
12289;DHT22;6207;49.308;7.336;2022-11-20T10:55:47;9.10;99.90
12289;DHT22;6207;49.308;7.336;2022-11-20T11:01:20;8.70;99.90
12289;DHT22;6207;49.308;7.336;2022-11-20T11:03:55;8.60;99.90
12289;DHT22;6207;49.308;7.336;2022-11-20T11:08:58;8.30;99.90
12289;DHT22;6207;49.308;7.336;2022-11-20T11:11:32;8.20;99.90
12289;DHT22;6207;49.308;7.336;2022-11-20T11:14:10;8.20;99.90
12289;DHT22;6207;49.308;7.336;2022-11-20T11:16:49;8.20;99.90
12289;DHT22;6207;49.308;7.336;2022-11-20T11:19:17;8.40;99.90
12289;DHT22;6207;49.308;7.336;2022-11-20T11:21:49;8.50;99.90
12289;DHT22;6207;49.308;7.336;2022-11-20T11:24:26;8.80;99.90
12289;DHT22;6207;49.308;7.336;2022-11-20T11:27:13;8.80;99.90
12289;DHT22;6207;49.308;7.336;2022-11-20T11:29:43;8.60;99.90
12289;DHT22;6207;49.308;7.336;2022-11-20T11:32:16;8.80;99.90
12289;DHT22;6207;49.308;7.336;2022-11-20T11:34:44;8.90;99.90
12289;DHT22;6207;49.308;7.336;2022-11-20T11:37:20;9.30;99.90
12289;DHT22;6207;49.308;7.336;2022-11-20T11:39:48;9.40;99.90
12289;DHT22;6207;49.308;7.336;2022-11-20T11:42:44;9.10;99.90
12289;DHT22;6207;49.308;7.336;2022-11-20T11:45:16;9.20;99.90
12289;DHT22;6207;49.308;7.336;2022-11-20T11:47:47;8.80;99.90
12289;DHT22;6207;49.308;7.336;2022-11-20T11:50:18;8.60;99.90
12289;DHT22;6207;49.308;7.336;2022-11-20T11:55:39;8.20;99.90
12289;DHT22;6207;49.308;7.336;2022-11-20T12:01:30;7.90;99.90
12289;DHT22;6207;49.308;7.336;2022-11-20T12:04:20;7.80;99.90
12289;DHT22;6207;49.308;7.336;2022-11-20T12:06:53;7.80;99.90
12289;DHT22;6207;49.308;7.336;2022-11-20T12:09:26;8.00;99.90
12289;DHT22;6207;49.308;7.336;2022-11-20T12:11:58;8.10;99.90
12289;DHT22;6207;49.308;7.336;2022-11-20T12:14:42;8.00;99.90
12289;DHT22;6207;49.308;7.336;2022-11-20T12:17:13;8.00;99.90
12289;DHT22;6207;49.308;7.336;2022-11-20T12:19:40;8.00;99.90
12289;DHT22;6207;49.308;7.336;2022-11-20T12:25:16;8.40;99.90
12289;DHT22;6207;49.308;7.336;2022-11-20T12:30:16;8.70;99.90
12289;DHT22;6207;49.308;7.336;2022-11-20T12:44:44;8.50;99.90
12289;DHT22;6207;49.308;7.336;2022-11-20T13:04:51;8.70;99.90
12289;DHT22;6207;49.308;7.336;2022-11-20T13:07:14;8.80;99.90
12289;DHT22;6207;49.308;7.336;2022-11-20T13:09:47;8.60;99.90
12289;DHT22;6207;49.308;7.336;2022-11-20T13:12:38;8.90;99.90
12289;DHT22;6207;49.308;7.336;2022-11-20T13:15:31;8.50;99.90
12289;DHT22;6207;49.308;7.336;2022-11-20T13:18:03;8.50;99.90
12289;DHT22;6207;49.308;7.336;2022-11-20T13:20:31;8.40;99.90
12289;DHT22;6207;49.308;7.336;2022-11-20T13:22:59;8.20;99.90
12289;DHT22;6207;49.308;7.336;2022-11-20T13:25:34;8.10;99.90
12289;DHT22;6207;49.308;7.336;2022-11-20T13:29:04;8.10;99.90
12289;DHT22;6207;49.308;7.336;2022-11-20T13:30:52;8.10;99.90
12289;DHT22;6207;49.308;7.336;2022-11-20T13:33:38;8.20;99.90
12289;DHT22;6207;49.308;7.336;2022-11-20T13:36:26;8.20;99.90
12289;DHT22;6207;49.308;7.336;2022-11-20T13:38:55;8.20;99.90
12289;DHT22;6207;49.308;7.336;2022-11-20T13:41:31;8.20;99.90
12289;DHT22;6207;49.308;7.336;2022-11-20T13:46:44;8.20;99.90
12289;DHT22;6207;49.308;7.336;2022-11-20T13:52:23;8.20;99.90
12289;DHT22;6207;49.308;7.336;2022-11-20T13:54:59;8.10;99.90
12289;DHT22;6207;49.308;7.336;2022-11-20T14:00:17;8.10;99.90
12289;DHT22;6207;49.308;7.336;2022-11-20T14:02:51;8.10;99.90
12289;DHT22;6207;49.308;7.336;2022-11-20T14:05:25;8.10;99.90
12289;DHT22;6207;49.308;7.336;2022-11-20T14:07:52;8.10;99.90
12289;DHT22;6207;49.308;7.336;2022-11-20T14:10:28;8.10;99.90
12289;DHT22;6207;49.308;7.336;2022-11-20T14:12:58;8.10;99.90
12289;DHT22;6207;49.308;7.336;2022-11-20T14:15:35;8.10;99.90
12289;DHT22;6207;49.308;7.336;2022-11-20T14:18:21;8.10;99.90
12289;DHT22;6207;49.308;7.336;2022-11-20T14:20:48;8.00;99.90
12289;DHT22;6207;49.308;7.336;2022-11-20T14:23:25;8.00;99.90
12289;DHT22;6207;49.308;7.336;2022-11-20T14:25:56;8.00;99.90
12289;DHT22;6207;49.308;7.336;2022-11-20T14:28:30;7.90;99.90
12289;DHT22;6207;49.308;7.336;2022-11-20T14:30:58;7.90;99.90
12289;DHT22;6207;49.308;7.336;2022-11-20T14:33:26;7.90;99.90
12289;DHT22;6207;49.308;7.336;2022-11-20T14:35:57;7.90;99.90
12289;DHT22;6207;49.308;7.336;2022-11-20T14:38:29;7.80;99.90
12289;DHT22;6207;49.308;7.336;2022-11-20T14:41:20;7.80;99.90
12289;DHT22;6207;49.308;7.336;2022-11-20T14:43:59;7.90;99.90
12289;DHT22;6207;49.308;7.336;2022-11-20T14:46:27;7.80;99.90
12289;DHT22;6207;49.308;7.336;2022-11-20T14:48:56;7.70;99.90
12289;DHT22;6207;49.308;7.336;2022-11-20T14:51:31;7.80;99.90
12289;DHT22;6207;49.308;7.336;2022-11-20T14:54:18;7.80;99.90
12289;DHT22;6207;49.308;7.336;2022-11-20T14:57:00;7.70;99.90
12289;DHT22;6207;49.308;7.336;2022-11-20T14:59:30;7.70;99.90
12289;DHT22;6207;49.308;7.336;2022-11-20T15:02:03;7.70;99.90
12289;DHT22;6207;49.308;7.336;2022-11-20T15:04:30;7.70;99.90
12289;DHT22;6207;49.308;7.336;2022-11-20T15:06:58;7.70;99.90
12289;DHT22;6207;49.308;7.336;2022-11-20T15:09:25;8.30;99.90
12289;DHT22;6207;49.308;7.336;2022-11-20T15:11:57;7.70;99.90
12289;DHT22;6207;49.308;7.336;2022-11-20T15:14:25;7.30;99.90
12289;DHT22;6207;49.308;7.336;2022-11-20T15:16:53;8.00;99.90
12289;DHT22;6207;49.308;7.336;2022-11-20T15:19:22;7.70;99.90
12289;DHT22;6207;49.308;7.336;2022-11-20T15:21:50;8.00;1.00
12289;DHT22;6207;49.308;7.336;2022-11-20T15:24:17;7.60;1.00
12289;DHT22;6207;49.308;7.336;2022-11-20T15:26:44;8.20;1.00
12289;DHT22;6207;49.308;7.336;2022-11-20T15:29:13;8.50;1.00
12289;DHT22;6207;49.308;7.336;2022-11-20T15:31:40;7.70;1.00
12289;DHT22;6207;49.308;7.336;2022-11-20T15:34:14;8.40;1.00
12289;DHT22;6207;49.308;7.336;2022-11-20T15:36:42;7.50;1.00
12289;DHT22;6207;49.308;7.336;2022-11-20T15:39:09;7.50;1.00
12289;DHT22;6207;49.308;7.336;2022-11-20T15:41:38;8.20;1.00
12289;DHT22;6207;49.308;7.336;2022-11-20T15:44:05;7.80;1.00
12289;DHT22;6207;49.308;7.336;2022-11-20T15:46:35;8.10;1.00
12289;DHT22;6207;49.308;7.336;2022-11-20T15:49:12;8.10;1.00
12289;DHT22;6207;49.308;7.336;2022-11-20T15:51:48;7.30;1.00
12289;DHT22;6207;49.308;7.336;2022-11-20T15:54:21;7.30;1.00
12289;DHT22;6207;49.308;7.336;2022-11-20T15:56:50;7.60;1.00
12289;DHT22;6207;49.308;7.336;2022-11-20T15:59:18;7.40;1.00
12289;DHT22;6207;49.308;7.336;2022-11-20T16:01:46;7.30;1.00
12289;DHT22;6207;49.308;7.336;2022-11-20T16:04:15;7.20;1.00
12289;DHT22;6207;49.308;7.336;2022-11-20T16:06:42;7.10;1.00
12289;DHT22;6207;49.308;7.336;2022-11-20T16:09:09;7.00;1.00
12289;DHT22;6207;49.308;7.336;2022-11-20T16:11:36;6.90;1.00
12289;DHT22;6207;49.308;7.336;2022-11-20T16:14:10;6.80;1.00
12289;DHT22;6207;49.308;7.336;2022-11-20T16:16:55;6.90;1.00
12289;DHT22;6207;49.308;7.336;2022-11-20T16:19:22;6.90;1.00
12289;DHT22;6207;49.308;7.336;2022-11-20T16:21:48;6.80;1.00
12289;DHT22;6207;49.308;7.336;2022-11-20T16:24:16;6.70;1.00
12289;DHT22;6207;49.308;7.336;2022-11-20T16:26:43;6.60;1.00
12289;DHT22;6207;49.308;7.336;2022-11-20T16:29:11;6.60;1.00
12289;DHT22;6207;49.308;7.336;2022-11-20T16:31:39;6.50;59.40
12289;DHT22;6207;49.308;7.336;2022-11-20T16:34:07;6.40;99.90
12289;DHT22;6207;49.308;7.336;2022-11-20T16:36:42;6.50;99.90
12289;DHT22;6207;49.308;7.336;2022-11-20T16:39:12;6.40;77.20
12289;DHT22;6207;49.308;7.336;2022-11-20T16:41:44;7.30;99.90
12289;DHT22;6207;49.308;7.336;2022-11-20T16:44:11;6.60;99.90
12289;DHT22;6207;49.308;7.336;2022-11-20T16:46:38;7.10;99.90
12289;DHT22;6207;49.308;7.336;2022-11-20T16:49:11;6.90;99.90
12289;DHT22;6207;49.308;7.336;2022-11-20T16:51:38;6.60;99.90
12289;DHT22;6207;49.308;7.336;2022-11-20T16:54:07;6.70;99.90
12289;DHT22;6207;49.308;7.336;2022-11-20T16:56:46;6.60;99.90
12289;DHT22;6207;49.308;7.336;2022-11-20T16:59:14;6.10;99.90
12289;DHT22;6207;49.308;7.336;2022-11-20T17:01:50;6.10;99.90
12289;DHT22;6207;49.308;7.336;2022-11-20T17:04:17;6.10;99.90
12289;DHT22;6207;49.308;7.336;2022-11-20T17:06:44;6.50;99.90
12289;DHT22;6207;49.308;7.336;2022-11-20T17:09:10;6.70;99.90
12289;DHT22;6207;49.308;7.336;2022-11-20T17:11:38;5.70;99.90
12289;DHT22;6207;49.308;7.336;2022-11-20T17:14:05;6.30;99.90
12289;DHT22;6207;49.308;7.336;2022-11-20T17:16:36;6.20;99.90
12289;DHT22;6207;49.308;7.336;2022-11-20T17:19:09;6.10;99.90
12289;DHT22;6207;49.308;7.336;2022-11-20T17:21:36;6.20;99.90
12289;DHT22;6207;49.308;7.336;2022-11-20T17:24:09;6.30;99.90
12289;DHT22;6207;49.308;7.336;2022-11-20T17:26:42;5.50;99.90
12289;DHT22;6207;49.308;7.336;2022-11-20T17:29:12;5.30;99.90
12289;DHT22;6207;49.308;7.336;2022-11-20T17:31:44;5.50;99.90
12289;DHT22;6207;49.308;7.336;2022-11-20T17:34:13;5.60;99.90
12289;DHT22;6207;49.308;7.336;2022-11-20T17:36:42;6.10;99.90
12289;DHT22;6207;49.308;7.336;2022-11-20T17:39:13;5.40;99.90
12289;DHT22;6207;49.308;7.336;2022-11-20T17:41:51;5.80;99.90
12289;DHT22;6207;49.308;7.336;2022-11-20T17:44:41;6.00;99.90
12289;DHT22;6207;49.308;7.336;2022-11-20T17:47:09;5.90;99.90
12289;DHT22;6207;49.308;7.336;2022-11-20T17:49:47;5.30;99.90
12289;DHT22;6207;49.308;7.336;2022-11-20T17:52:14;5.60;99.90
12289;DHT22;6207;49.308;7.336;2022-11-20T17:54:41;5.60;99.90
12289;DHT22;6207;49.308;7.336;2022-11-20T17:57:10;5.50;99.90